Terminal Aerodrome Forecast
Issued by NWS

Home | Current Version | Previous Version | Text Only | Print | Product List | Glossary On
Versions: 1 2 3 4 5 6 7 8 9 10 11 12 13 14
000
FTUS41 KBTV 272300
TAFMSS
TAF
KMSS 272328Z 2800/2824 29004KT P6SM BKN130
     FM280600 28004KT P6SM SCT045 BKN090
     FM281400 31009KT P6SM SCT045 SCT070
     FM281700 31010G18KT P6SM SCT045=

USA.gov is the U.S. government's official web portal to all federal, state and local government web resources and services.